Time;durP1;ratioP1;P1;durP2;ratioP2;P2;SDS_P1;SDS_P2;PMS_P1;PMS_P2;Temp;Humidity;BMP_temperature;BMP_pressure;BME280_temperature;BME280_humidity;BME280_pressure;Samples;Min_cycle;Max_cycle;Signal;HPM_P1;HPM_P2
2022/08/27 00:00:21;;;;;;;14.87;13.37;;;;;;;;;;5056942;28;20301;-74
2022/08/27 00:02:47;;;;;;;16.07;14.37;;;;;;;;;;5063686;28;20192;-75
2022/08/27 00:05:15;;;;;;;15.70;14.17;;;;;;;;;;5055497;28;20290;-74
2022/08/27 00:07:41;;;;;;;15.60;14.00;;;;;;;;;;5063555;28;20724;-75
2022/08/27 00:10:09;;;;;;;16.30;14.60;;;;;;;;;;5067071;28;20173;-74
2022/08/27 00:12:35;;;;;;;16.47;14.67;;;;;;;;;;5061216;28;20200;-75
2022/08/27 00:15:02;;;;;;;17.27;15.65;;;;;;;;;;5060209;28;20436;-74
2022/08/27 00:17:28;;;;;;;17.50;15.90;;;;;;;;;;5053890;28;20228;-73
2022/08/27 00:19:54;;;;;;;16.53;14.93;;;;;;;;;;5057581;28;20205;-73
2022/08/27 00:22:21;;;;;;;15.13;13.67;;;;;;;;;;5058061;28;20190;-73
2022/08/27 00:24:47;;;;;;;14.83;13.37;;;;;;;;;;5053398;28;20275;-73
2022/08/27 00:27:13;;;;;;;13.43;12.13;;;;;;;;;;5059527;28;20193;-73
2022/08/27 00:29:39;;;;;;;15.23;13.77;;;;;;;;;;5059925;28;20173;-73
2022/08/27 00:32:07;;;;;;;13.77;12.30;;;;;;;;;;5060458;28;20189;-73
2022/08/27 00:34:34;;;;;;;14.17;12.37;;;;;;;;;;5048064;28;20280;-73
2022/08/27 00:37:02;;;;;;;13.60;12.20;;;;;;;;;;5057790;28;20231;-73
2022/08/27 00:39:28;;;;;;;12.83;11.63;;;;;;;;;;5065504;28;20267;-74
2022/08/27 00:41:54;;;;;;;12.37;10.90;;;;;;;;;;5062268;28;20209;-74
2022/08/27 00:44:21;;;;;;;12.37;11.27;;;;;;;;;;5062374;28;20205;-74
2022/08/27 00:46:49;;;;;;;12.77;11.63;;;;;;;;;;5058865;28;20364;-73
2022/08/27 00:49:31;;;;;;;12.90;11.53;;;;;;;;;;5061251;28;20186;-73
2022/08/27 00:52:02;;;;;;;11.87;10.63;;;;;;;;;;5061091;28;20212;-73
2022/08/27 00:54:29;;;;;;;12.13;10.83;;;;;;;;;;5061024;28;20284;-73
2022/08/27 00:56:55;;;;;;;13.90;11.50;;;;;;;;;;5060428;28;20715;-74
2022/08/27 00:59:23;;;;;;;13.40;11.77;;;;;;;;;;5063202;28;20181;-73
2022/08/27 01:04:36;;;;;;;13.33;11.57;;;;;;;;;;5066391;28;20217;-73
2022/08/27 01:07:02;;;;;;;11.87;10.70;;;;;;;;;;5060430;28;20185;-73
2022/08/27 01:09:28;;;;;;;12.43;11.23;;;;;;;;;;5062563;28;20189;-73
2022/08/27 01:11:56;;;;;;;13.43;10.63;;;;;;;;;;5060877;28;20625;-74
2022/08/27 01:14:23;;;;;;;12.03;10.80;;;;;;;;;;5063234;28;20209;-73
2022/08/27 01:16:51;;;;;;;12.13;10.63;;;;;;;;;;5067095;28;20181;-73
2022/08/27 01:19:23;;;;;;;11.70;10.50;;;;;;;;;;5063448;28;20205;-74
2022/08/27 01:22:04;;;;;;;11.83;10.73;;;;;;;;;;5061000;28;20205;-74
2022/08/27 01:24:34;;;;;;;11.93;10.83;;;;;;;;;;5064317;28;20266;-74
2022/08/27 01:27:01;;;;;;;11.80;10.60;;;;;;;;;;5061706;28;20218;-73
2022/08/27 01:29:27;;;;;;;11.73;10.63;;;;;;;;;;5064642;28;20189;-73
2022/08/27 01:31:57;;;;;;;12.93;10.53;;;;;;;;;;5061732;28;20195;-74
2022/08/27 01:34:23;;;;;;;11.73;10.20;;;;;;;;;;5065880;28;20247;-74
2022/08/27 01:36:49;;;;;;;11.23;10.07;;;;;;;;;;5066382;28;20192;-74
2022/08/27 01:39:15;;;;;;;11.00;9.80;;;;;;;;;;5055803;28;20207;-74
2022/08/27 01:41:41;;;;;;;10.77;9.77;;;;;;;;;;5066285;28;20280;-75
2022/08/27 01:44:07;;;;;;;12.00;10.70;;;;;;;;;;5068312;28;20681;-74
2022/08/27 01:46:35;;;;;;;11.60;10.03;;;;;;;;;;5059139;28;20178;-74
2022/08/27 01:49:01;;;;;;;11.60;10.40;;;;;;;;;;5064932;28;20818;-73
2022/08/27 01:51:27;;;;;;;10.60;9.60;;;;;;;;;;5062735;28;20253;-73
2022/08/27 01:53:53;;;;;;;10.17;9.17;;;;;;;;;;5065108;28;20240;-73
2022/08/27 01:56:19;;;;;;;11.00;8.90;;;;;;;;;;5047225;28;20232;-73
2022/08/27 01:58:46;;;;;;;10.03;9.13;;;;;;;;;;5063818;28;20173;-73
2022/08/27 02:01:15;;;;;;;9.93;9.03;;;;;;;;;;5057467;28;20222;-73
2022/08/27 02:03:42;;;;;;;9.33;8.40;;;;;;;;;;5060008;28;20189;-74
2022/08/27 02:06:09;;;;;;;14.40;11.63;;;;;;;;;;5061884;28;20181;-74
2022/08/27 02:08:35;;;;;;;12.13;10.93;;;;;;;;;;5063817;28;20180;-74
2022/08/27 02:11:02;;;;;;;14.00;11.87;;;;;;;;;;5063826;28;20184;-74
2022/08/27 02:13:28;;;;;;;13.80;12.50;;;;;;;;;;5058543;28;20214;-73
2022/08/27 02:15:55;;;;;;;12.83;11.50;;;;;;;;;;5066254;28;20197;-73
2022/08/27 02:18:21;;;;;;;13.00;11.73;;;;;;;;;;5064094;28;20633;-73
2022/08/27 02:20:48;;;;;;;13.23;11.93;;;;;;;;;;5063403;28;20201;-74
2022/08/27 02:23:15;;;;;;;12.33;11.03;;;;;;;;;;5067021;28;20202;-74
2022/08/27 02:25:42;;;;;;;13.57;11.13;;;;;;;;;;5065209;28;20736;-75
2022/08/27 02:28:08;;;;;;;13.33;12.00;;;;;;;;;;5063392;28;20185;-74
2022/08/27 02:30:36;;;;;;;14.30;11.40;;;;;;;;;;5063274;28;20189;-75
2022/08/27 02:33:03;;;;;;;13.77;11.53;;;;;;;;;;5062938;28;20279;-73
2022/08/27 02:35:30;;;;;;;12.60;11.30;;;;;;;;;;5066492;28;20878;-73
2022/08/27 02:37:57;;;;;;;11.87;10.77;;;;;;;;;;5059090;28;20209;-74
2022/08/27 02:40:23;;;;;;;14.27;11.10;;;;;;;;;;5064349;28;20307;-74
2022/08/27 02:42:50;;;;;;;11.30;10.17;;;;;;;;;;5063607;28;20188;-74
2022/08/27 02:45:16;;;;;;;14.43;11.60;;;;;;;;;;5062690;28;20362;-74
2022/08/27 02:47:43;;;;;;;11.33;10.17;;;;;;;;;;5062458;28;20551;-73
2022/08/27 02:50:10;;;;;;;10.93;9.80;;;;;;;;;;5066373;28;20190;-74
2022/08/27 02:52:36;;;;;;;12.43;9.33;;;;;;;;;;5063299;28;20189;-73
2022/08/27 02:55:02;;;;;;;10.27;9.07;;;;;;;;;;5066615;28;20253;-74
2022/08/27 02:57:30;;;;;;;9.60;8.57;;;;;;;;;;5062398;28;20260;-74
2022/08/27 02:59:56;;;;;;;11.10;8.60;;;;;;;;;;5063111;28;20200;-73
2022/08/27 03:02:23;;;;;;;9.90;8.67;;;;;;;;;;5054259;28;20206;-74
2022/08/27 03:04:50;;;;;;;10.03;9.00;;;;;;;;;;5057618;28;20245;-74
2022/08/27 03:07:16;;;;;;;10.47;8.60;;;;;;;;;;5064942;28;20177;-74
2022/08/27 03:09:42;;;;;;;9.70;8.50;;;;;;;;;;5064524;28;20832;-73
2022/08/27 03:12:08;;;;;;;10.70;9.27;;;;;;;;;;5067598;28;20197;-73
2022/08/27 03:14:34;;;;;;;13.70;10.50;;;;;;;;;;5061553;28;20220;-73
2022/08/27 03:18:17;;;;;;;10.17;9.27;;;;;;;;;;5068669;28;20262;-74
2022/08/27 03:19:47;;;;;;;10.97;9.87;;;;;;;;;;5062669;28;20263;-73
2022/08/27 03:22:13;;;;;;;11.63;10.33;;;;;;;;;;5079075;28;20177;-74
2022/08/27 03:24:39;;;;;;;10.43;9.53;;;;;;;;;;5063450;28;20242;-74
2022/08/27 03:27:06;;;;;;;10.73;9.73;;;;;;;;;;5066444;28;20170;-73
2022/08/27 03:29:33;;;;;;;10.77;9.27;;;;;;;;;;5060063;28;20190;-73
2022/08/27 03:31:59;;;;;;;13.27;10.30;;;;;;;;;;5062716;28;20189;-73
2022/08/27 03:34:26;;;;;;;10.33;9.33;;;;;;;;;;5060046;28;20205;-73
2022/08/27 03:36:52;;;;;;;11.33;9.93;;;;;;;;;;5061291;28;20181;-73
2022/08/27 03:39:18;;;;;;;11.40;10.27;;;;;;;;;;5064466;28;20255;-74
2022/08/27 03:41:45;;;;;;;12.83;10.83;;;;;;;;;;5063908;28;20300;-73
2022/08/27 03:44:11;;;;;;;10.90;9.90;;;;;;;;;;5059959;28;20205;-73
2022/08/27 03:46:37;;;;;;;11.83;10.70;;;;;;;;;;5059030;28;20194;-73
2022/08/27 03:49:04;;;;;;;11.33;10.20;;;;;;;;;;5064769;28;20212;-73
2022/08/27 03:51:30;;;;;;;11.90;10.70;;;;;;;;;;5065852;28;20307;-72
2022/08/27 03:53:56;;;;;;;12.00;10.80;;;;;;;;;;5060433;28;20240;-73
2022/08/27 03:56:22;;;;;;;13.43;11.10;;;;;;;;;;5065562;28;20183;-73
2022/08/27 03:58:49;;;;;;;12.77;11.10;;;;;;;;;;5064014;28;20192;-73
2022/08/27 04:01:16;;;;;;;11.03;10.03;;;;;;;;;;5062295;28;20212;-73
2022/08/27 04:03:43;;;;;;;12.37;11.17;;;;;;;;;;5071744;28;20273;-73
2022/08/27 04:06:09;;;;;;;12.40;11.03;;;;;;;;;;5062828;28;20188;-74
2022/08/27 04:08:35;;;;;;;15.77;10.57;;;;;;;;;;5059707;28;20169;-73
2022/08/27 04:11:05;;;;;;;13.37;10.33;;;;;;;;;;5062799;28;20265;-73
2022/08/27 04:13:31;;;;;;;11.97;10.77;;;;;;;;;;5056077;28;20599;-72
2022/08/27 04:15:57;;;;;;;11.47;10.27;;;;;;;;;;5065139;28;20192;-73
2022/08/27 04:18:23;;;;;;;12.17;10.83;;;;;;;;;;5061670;28;20187;-72
2022/08/27 04:20:51;;;;;;;14.17;10.60;;;;;;;;;;5057316;28;20209;-74
2022/08/27 04:23:17;;;;;;;13.33;11.40;;;;;;;;;;5059216;28;20208;-72
2022/08/27 04:25:44;;;;;;;11.93;10.10;;;;;;;;;;5062606;28;20209;-72
2022/08/27 04:28:11;;;;;;;10.93;9.87;;;;;;;;;;5062296;28;20728;-74
2022/08/27 04:30:41;;;;;;;11.30;10.10;;;;;;;;;;5065325;28;20173;-73
2022/08/27 04:33:08;;;;;;;14.40;10.93;;;;;;;;;;5061286;28;20219;-73
2022/08/27 04:35:34;;;;;;;10.17;9.17;;;;;;;;;;5062291;28;20191;-72
2022/08/27 04:38:00;;;;;;;12.17;9.70;;;;;;;;;;5059124;28;20178;-74
2022/08/27 04:41:18;;;;;;;11.97;9.63;;;;;;;;;;5066278;28;20284;-74
2022/08/27 04:43:14;;;;;;;10.20;9.20;;;;;;;;;;5061511;28;20211;-74
2022/08/27 04:45:44;;;;;;;10.60;9.50;;;;;;;;;;5062716;28;20488;-72
2022/08/27 04:48:11;;;;;;;11.40;9.70;;;;;;;;;;5063220;28;20230;-73
2022/08/27 04:50:41;;;;;;;10.77;9.23;;;;;;;;;;5061191;28;20170;-73
2022/08/27 04:53:08;;;;;;;10.73;8.77;;;;;;;;;;5065956;28;20193;-73
2022/08/27 04:55:40;;;;;;;10.37;9.10;;;;;;;;;;5062322;28;20838;-73
2022/08/27 04:58:06;;;;;;;10.10;7.90;;;;;;;;;;5051241;28;20590;-72
2022/08/27 05:00:33;;;;;;;9.67;8.73;;;;;;;;;;5055601;28;21533;-73
2022/08/27 05:02:59;;;;;;;11.23;8.40;;;;;;;;;;5065078;28;20197;-73
2022/08/27 05:05:28;;;;;;;9.87;8.87;;;;;;;;;;5065577;28;20414;-74
2022/08/27 05:07:54;;;;;;;11.10;9.23;;;;;;;;;;5060674;28;20193;-73
2022/08/27 05:10:20;;;;;;;10.33;8.53;;;;;;;;;;5062541;28;20185;-73
2022/08/27 05:12:48;;;;;;;9.27;8.20;;;;;;;;;;5066170;28;20676;-73
2022/08/27 05:15:14;;;;;;;11.57;8.50;;;;;;;;;;5066706;28;20311;-73
2022/08/27 05:17:41;;;;;;;11.57;9.73;;;;;;;;;;5063716;28;20214;-73
2022/08/27 05:20:08;;;;;;;9.53;8.50;;;;;;;;;;5060952;28;20181;-73
2022/08/27 05:22:35;;;;;;;9.67;8.67;;;;;;;;;;5062899;28;20703;-72
2022/08/27 05:25:01;;;;;;;11.30;8.50;;;;;;;;;;5058854;28;20859;-72
2022/08/27 05:27:27;;;;;;;11.30;8.43;;;;;;;;;;5065789;28;20213;-72
2022/08/27 05:29:54;;;;;;;10.60;9.43;;;;;;;;;;5058701;28;20275;-73
2022/08/27 05:32:20;;;;;;;10.40;9.20;;;;;;;;;;5058859;28;20269;-73
2022/08/27 05:34:46;;;;;;;9.53;8.53;;;;;;;;;;5060496;28;20197;-73
2022/08/27 05:37:13;;;;;;;9.20;8.40;;;;;;;;;;5057993;28;20272;-75
2022/08/27 05:39:39;;;;;;;11.27;8.40;;;;;;;;;;5069728;28;20339;-75
2022/08/27 05:42:06;;;;;;;11.17;8.63;;;;;;;;;;5055670;28;20236;-76
2022/08/27 05:44:32;;;;;;;14.33;8.60;;;;;;;;;;5058771;28;20284;-73
2022/08/27 05:46:58;;;;;;;10.47;8.40;;;;;;;;;;5062247;28;20174;-73
2022/08/27 05:49:24;;;;;;;9.90;8.90;;;;;;;;;;5070070;28;20174;-73
2022/08/27 05:51:51;;;;;;;11.10;8.40;;;;;;;;;;5070739;28;20177;-76
2022/08/27 05:54:20;;;;;;;10.47;9.07;;;;;;;;;;5065790;28;20204;-77
2022/08/27 05:56:48;;;;;;;10.07;8.47;;;;;;;;;;5067373;28;20177;-72
2022/08/27 06:01:59;;;;;;;11.80;9.17;;;;;;;;;;5058274;28;20201;-74
2022/08/27 06:04:25;;;;;;;11.80;8.67;;;;;;;;;;5065606;28;20216;-74
2022/08/27 06:06:52;;;;;;;9.90;8.10;;;;;;;;;;5060242;28;20660;-73
2022/08/27 06:09:19;;;;;;;11.30;8.90;;;;;;;;;;5060792;28;20174;-73
2022/08/27 06:11:46;;;;;;;11.97;8.37;;;;;;;;;;5060831;28;20205;-73
2022/08/27 06:14:13;;;;;;;9.70;8.00;;;;;;;;;;5065468;28;20623;-73
2022/08/27 06:16:39;;;;;;;16.33;10.13;;;;;;;;;;5058578;28;20181;-73
2022/08/27 06:19:06;;;;;;;13.60;9.47;;;;;;;;;;5061698;28;20189;-72
2022/08/27 06:21:33;;;;;;;11.87;9.03;;;;;;;;;;5065323;28;20216;-73
2022/08/27 06:24:00;;;;;;;13.13;9.93;;;;;;;;;;5068975;28;20244;-73
2022/08/27 06:26:26;;;;;;;13.30;10.30;;;;;;;;;;5062884;28;20185;-74
2022/08/27 06:28:52;;;;;;;10.80;9.13;;;;;;;;;;5067282;28;20885;-73
2022/08/27 06:31:21;;;;;;;12.77;10.00;;;;;;;;;;5065010;28;20194;-73
2022/08/27 06:33:49;;;;;;;12.00;9.63;;;;;;;;;;5064753;28;20272;-74
2022/08/27 06:36:16;;;;;;;10.30;8.70;;;;;;;;;;5060210;28;20182;-73
2022/08/27 06:38:43;;;;;;;11.87;8.40;;;;;;;;;;5063595;28;20221;-74
2022/08/27 06:41:10;;;;;;;10.57;8.60;;;;;;;;;;5064171;28;20204;-74
2022/08/27 06:43:36;;;;;;;11.37;9.77;;;;;;;;;;5058243;28;20200;-73
2022/08/27 06:46:04;;;;;;;10.30;9.30;;;;;;;;;;5067273;28;20173;-75
2022/08/27 06:48:30;;;;;;;11.07;9.93;;;;;;;;;;5063353;28;20309;-74
2022/08/27 06:50:56;;;;;;;12.20;9.40;;;;;;;;;;5081734;28;20258;-73
2022/08/27 06:53:23;;;;;;;10.40;8.67;;;;;;;;;;5065219;28;20671;-74
2022/08/27 06:55:49;;;;;;;9.00;8.10;;;;;;;;;;5058447;28;20205;-75
2022/08/27 06:58:16;;;;;;;12.63;8.67;;;;;;;;;;5065074;28;20199;-74
2022/08/27 07:00:43;;;;;;;14.03;9.50;;;;;;;;;;5062918;28;20201;-74
2022/08/27 07:03:09;;;;;;;11.33;9.10;;;;;;;;;;5060894;28;20688;-74
2022/08/27 07:05:36;;;;;;;10.03;9.00;;;;;;;;;;5057744;28;20234;-75
2022/08/27 07:08:03;;;;;;;11.03;9.43;;;;;;;;;;5057894;28;20170;-74
2022/08/27 07:10:29;;;;;;;12.57;9.40;;;;;;;;;;5056680;28;20230;-74
2022/08/27 07:12:56;;;;;;;14.73;9.67;;;;;;;;;;5056963;28;20223;-75
2022/08/27 07:15:22;;;;;;;11.07;8.70;;;;;;;;;;5060900;28;20742;-75
2022/08/27 07:17:48;;;;;;;13.83;10.13;;;;;;;;;;5055897;28;20245;-73
2022/08/27 07:20:15;;;;;;;13.90;8.90;;;;;;;;;;5059126;28;20650;-74
2022/08/27 07:22:42;;;;;;;12.03;9.93;;;;;;;;;;5063567;28;20861;-74
2022/08/27 07:25:11;;;;;;;10.30;8.93;;;;;;;;;;5063936;28;20239;-74
2022/08/27 07:27:37;;;;;;;12.20;9.00;;;;;;;;;;5067695;28;20184;-74
2022/08/27 07:30:05;;;;;;;12.33;9.70;;;;;;;;;;5064750;28;20264;-73
2022/08/27 07:32:31;;;;;;;10.93;9.50;;;;;;;;;;5064998;28;20177;-73
2022/08/27 07:34:57;;;;;;;12.00;9.70;;;;;;;;;;5062413;28;20205;-73
2022/08/27 07:37:23;;;;;;;11.83;10.20;;;;;;;;;;5059411;28;20189;-74
2022/08/27 07:39:49;;;;;;;16.50;11.00;;;;;;;;;;5059694;28;20202;-73
2022/08/27 07:45:00;;;;;;;10.03;9.00;;;;;;;;;;5063755;28;20204;-73
2022/08/27 07:47:26;;;;;;;12.27;9.73;;;;;;;;;;5063799;28;20264;-74
2022/08/27 07:49:52;;;;;;;13.97;10.03;;;;;;;;;;5065693;28;20181;-74
2022/08/27 07:52:18;;;;;;;10.33;8.80;;;;;;;;;;5058986;28;20201;-74
2022/08/27 07:54:45;;;;;;;11.23;9.37;;;;;;;;;;5067512;28;20872;-74
2022/08/27 07:57:11;;;;;;;11.27;10.13;;;;;;;;;;5064381;28;20181;-74
2022/08/27 07:59:37;;;;;;;14.10;10.80;;;;;;;;;;5067567;28;20177;-74
2022/08/27 08:02:03;;;;;;;14.60;10.27;;;;;;;;;;5063325;28;20892;-74
2022/08/27 08:04:29;;;;;;;12.40;9.90;;;;;;;;;;5063486;28;20633;-73
2022/08/27 08:06:56;;;;;;;11.90;10.27;;;;;;;;;;5057002;28;20181;-77
2022/08/27 08:09:22;;;;;;;11.17;9.50;;;;;;;;;;5066837;28;20181;-77
2022/08/27 08:11:50;;;;;;;14.10;10.40;;;;;;;;;;5067134;28;20185;-75
2022/08/27 08:14:17;;;;;;;17.43;9.60;;;;;;;;;;5063730;28;20573;-75
2022/08/27 08:16:43;;;;;;;14.63;9.20;;;;;;;;;;5054410;28;20238;-75
2022/08/27 08:19:09;;;;;;;13.07;9.77;;;;;;;;;;5063772;28;20280;-75
2022/08/27 08:21:36;;;;;;;13.37;9.83;;;;;;;;;;5065647;28;20217;-75
2022/08/27 08:24:03;;;;;;;11.10;9.37;;;;;;;;;;5066852;28;20194;-75
2022/08/27 08:26:29;;;;;;;12.23;9.27;;;;;;;;;;5060742;28;20196;-75
2022/08/27 08:28:55;;;;;;;10.27;9.10;;;;;;;;;;5064995;28;20260;-75
2022/08/27 08:31:22;;;;;;;9.80;8.80;;;;;;;;;;5067081;28;20281;-75
2022/08/27 08:33:49;;;;;;;10.20;8.80;;;;;;;;;;5066487;28;20259;-75
2022/08/27 08:36:16;;;;;;;11.83;8.80;;;;;;;;;;5065962;28;20699;-75
2022/08/27 08:38:43;;;;;;;10.80;9.07;;;;;;;;;;5064483;28;20184;-75
2022/08/27 08:41:27;;;;;;;10.50;9.10;;;;;;;;;;5065802;28;20209;-75
2022/08/27 08:43:55;;;;;;;9.97;8.60;;;;;;;;;;5063787;28;20660;-75
2022/08/27 08:46:27;;;;;;;11.10;7.90;;;;;;;;;;5060789;28;20170;-75
2022/08/27 08:48:56;;;;;;;9.13;7.83;;;;;;;;;;5065151;28;20220;-75
2022/08/27 08:51:26;;;;;;;10.70;8.20;;;;;;;;;;5064908;28;20235;-75
2022/08/27 08:53:52;;;;;;;9.93;7.93;;;;;;;;;;5061376;28;20204;-75
2022/08/27 08:56:24;;;;;;;9.53;7.70;;;;;;;;;;5067016;28;20288;-75
2022/08/27 08:58:55;;;;;;;12.40;8.63;;;;;;;;;;5063014;28;20272;-75
2022/08/27 09:01:21;;;;;;;9.30;7.83;;;;;;;;;;5056867;28;20209;-77
2022/08/27 09:03:52;;;;;;;10.60;8.13;;;;;;;;;;5059805;28;20875;-77
2022/08/27 09:06:34;;;;;;;10.27;8.40;;;;;;;;;;5058661;28;20194;-74
2022/08/27 09:09:04;;;;;;;9.17;7.70;;;;;;;;;;5060207;28;20204;-75
2022/08/27 09:11:38;;;;;;;11.90;8.40;;;;;;;;;;5063757;28;20661;-76
2022/08/27 09:14:20;;;;;;;8.37;7.53;;;;;;;;;;5064473;28;20266;-75
2022/08/27 09:16:46;;;;;;;9.13;6.90;;;;;;;;;;5065376;28;20194;-75
2022/08/27 09:19:12;;;;;;;10.10;7.60;;;;;;;;;;5063904;28;20185;-75
2022/08/27 09:21:44;;;;;;;8.97;7.63;;;;;;;;;;5062779;28;20212;-76
2022/08/27 09:24:17;;;;;;;12.00;8.07;;;;;;;;;;5053533;28;20220;-75
2022/08/27 09:26:43;;;;;;;10.33;7.80;;;;;;;;;;5056053;28;20185;-76
2022/08/27 09:29:15;;;;;;;12.83;8.27;;;;;;;;;;5065111;28;20555;-76
2022/08/27 09:31:43;;;;;;;8.87;7.87;;;;;;;;;;5044254;28;20186;-76
2022/08/27 09:34:09;;;;;;;8.77;7.60;;;;;;;;;;5057463;28;20773;-75
2022/08/27 09:36:46;;;;;;;10.17;6.87;;;;;;;;;;5061132;28;21441;-76
2022/08/27 09:39:13;;;;;;;12.33;7.93;;;;;;;;;;5061445;28;20197;-76
2022/08/27 09:41:44;;;;;;;8.47;7.40;;;;;;;;;;5058987;28;20243;-75
2022/08/27 09:44:12;;;;;;;8.70;7.60;;;;;;;;;;5065645;28;20684;-75
2022/08/27 09:46:39;;;;;;;7.63;6.83;;;;;;;;;;5069529;28;20185;-75
2022/08/27 09:49:15;;;;;;;9.80;8.00;;;;;;;;;;5065393;28;20187;-76
2022/08/27 09:51:43;;;;;;;9.43;8.40;;;;;;;;;;5062487;28;20231;-76
2022/08/27 09:54:10;;;;;;;9.07;7.40;;;;;;;;;;5061767;28;20253;-78
2022/08/27 09:56:38;;;;;;;9.90;7.23;;;;;;;;;;5047212;28;20185;-77
2022/08/27 09:59:11;;;;;;;8.60;7.20;;;;;;;;;;5063126;28;20177;-75
2022/08/27 10:01:59;;;;;;;10.70;7.70;;;;;;;;;;5064293;28;20702;-75
2022/08/27 10:04:27;;;;;;;10.53;7.17;;;;;;;;;;5048310;28;20209;-76
2022/08/27 10:06:53;;;;;;;8.60;7.10;;;;;;;;;;5081182;28;20191;-75
2022/08/27 10:09:24;;;;;;;8.33;6.93;;;;;;;;;;5065913;28;20284;-75
2022/08/27 10:12:07;;;;;;;11.93;7.53;;;;;;;;;;5065255;28;20193;-77
2022/08/27 10:14:53;;;;;;;9.57;7.20;;;;;;;;;;5064434;28;20266;-78
2022/08/27 10:17:19;;;;;;;8.33;7.20;;;;;;;;;;5060759;28;20197;-78
2022/08/27 10:19:48;;;;;;;9.00;6.80;;;;;;;;;;5045001;28;20189;-77
2022/08/27 10:22:18;;;;;;;9.47;7.50;;;;;;;;;;5065014;28;20785;-77
2022/08/27 10:25:02;;;;;;;8.20;7.33;;;;;;;;;;5042515;28;20220;-78
2022/08/27 10:27:35;;;;;;;9.03;6.77;;;;;;;;;;5068833;28;20208;-77
2022/08/27 10:30:07;;;;;;;9.57;7.20;;;;;;;;;;5062771;28;20187;-77
2022/08/27 10:32:39;;;;;;;8.00;7.30;;;;;;;;;;5066055;28;20174;-77
2022/08/27 10:35:09;;;;;;;8.07;6.43;;;;;;;;;;5048991;28;20188;-77
2022/08/27 10:37:48;;;;;;;10.80;7.67;;;;;;;;;;5060185;28;20196;-77
2022/08/27 10:40:26;;;;;;;9.47;7.40;;;;;;;;;;5050395;28;20657;-77
2022/08/27 10:43:06;;;;;;;9.70;6.83;;;;;;;;;;5067982;28;20783;-77
2022/08/27 10:45:41;;;;;;;7.80;6.13;;;;;;;;;;5069235;28;20181;-77
2022/08/27 10:48:28;;;;;;;8.27;6.67;;;;;;;;;;5069587;28;20256;-78
2022/08/27 10:51:03;;;;;;;7.73;7.03;;;;;;;;;;5066096;28;20192;-77
2022/08/27 10:53:45;;;;;;;7.07;6.27;;;;;;;;;;5063266;28;20205;-77
2022/08/27 10:56:13;;;;;;;7.30;6.57;;;;;;;;;;5066069;28;20294;-77
2022/08/27 10:58:46;;;;;;;6.83;6.10;;;;;;;;;;5066325;28;20909;-78
2022/08/27 11:01:25;;;;;;;8.30;6.40;;;;;;;;;;5065214;28;20282;-78
2022/08/27 11:03:55;;;;;;;7.30;6.60;;;;;;;;;;5065971;28;20218;-78
2022/08/27 11:06:30;;;;;;;6.77;6.07;;;;;;;;;;5066171;28;20185;-78
2022/08/27 11:08:59;;;;;;;6.60;5.93;;;;;;;;;;5064352;28;20816;-77
2022/08/27 11:12:01;;;;;;;7.33;6.40;;;;;;;;;;5060764;28;20189;-77
2022/08/27 11:14:30;;;;;;;7.40;6.30;;;;;;;;;;5004972;28;20245;-77
2022/08/27 11:17:02;;;;;;;7.80;6.77;;;;;;;;;;5057060;28;20203;-77
2022/08/27 11:19:37;;;;;;;7.37;6.10;;;;;;;;;;5060927;28;20211;-77
2022/08/27 11:22:03;;;;;;;7.93;6.43;;;;;;;;;;5062833;28;20213;-77
2022/08/27 11:24:36;;;;;;;6.87;6.17;;;;;;;;;;5064337;28;20201;-77
2022/08/27 11:27:04;;;;;;;8.17;6.83;;;;;;;;;;5051427;28;20186;-77
2022/08/27 11:29:33;;;;;;;7.47;6.73;;;;;;;;;;5064355;28;20214;-77
2022/08/27 11:32:05;;;;;;;7.53;6.00;;;;;;;;;;5066480;28;20200;-77
2022/08/27 11:34:38;;;;;;;7.10;6.37;;;;;;;;;;5065201;28;20209;-77
2022/08/27 11:37:07;;;;;;;7.80;5.80;;;;;;;;;;5081849;28;20216;-77
2022/08/27 11:39:39;;;;;;;6.57;5.87;;;;;;;;;;5062412;28;20177;-77
2022/08/27 11:42:13;;;;;;;7.10;6.40;;;;;;;;;;5059524;28;20213;-78
2022/08/27 11:44:42;;;;;;;7.03;6.03;;;;;;;;;;5063029;28;20830;-78
2022/08/27 11:47:18;;;;;;;7.13;6.53;;;;;;;;;;5062280;28;20199;-78
2022/08/27 11:49:45;;;;;;;9.50;7.23;;;;;;;;;;5059194;28;20186;-77
2022/08/27 11:52:12;;;;;;;6.80;6.20;;;;;;;;;;5059165;28;20738;-77
2022/08/27 11:54:48;;;;;;;7.47;6.43;;;;;;;;;;5053737;28;20215;-78
2022/08/27 11:57:35;;;;;;;7.33;6.40;;;;;;;;;;5065226;28;20195;-77
2022/08/27 12:00:17;;;;;;;7.57;6.33;;;;;;;;;;5060205;28;20183;-77
2022/08/27 12:02:44;;;;;;;8.50;6.60;;;;;;;;;;5062373;28;20287;-78
2022/08/27 12:05:20;;;;;;;8.43;6.90;;;;;;;;;;5045457;28;20177;-79
2022/08/27 12:07:49;;;;;;;9.43;6.70;;;;;;;;;;5058590;28;20187;-78
2022/08/27 12:10:42;;;;;;;7.93;6.90;;;;;;;;;;5059574;28;20196;-76
2022/08/27 12:13:11;;;;;;;6.77;6.00;;;;;;;;;;5030443;28;20224;-77
2022/08/27 12:15:46;;;;;;;9.70;6.97;;;;;;;;;;5060452;28;20180;-76
2022/08/27 12:18:35;;;;;;;8.43;6.50;;;;;;;;;;5057752;28;20210;-75
2022/08/27 12:21:05;;;;;;;7.27;5.87;;;;;;;;;;5062793;28;20197;-76
2022/08/27 12:23:41;;;;;;;9.70;6.13;;;;;;;;;;5061703;28;20266;-76
2022/08/27 12:26:14;;;;;;;8.77;6.00;;;;;;;;;;5053965;28;20189;-76
2022/08/27 12:28:40;;;;;;;7.17;5.87;;;;;;;;;;5060192;28;20192;-76
2022/08/27 12:31:07;;;;;;;7.63;6.03;;;;;;;;;;5062109;28;20189;-80
2022/08/27 12:33:35;;;;;;;7.93;6.30;;;;;;;;;;5062071;28;20275;-77
2022/08/27 12:36:08;;;;;;;6.77;6.13;;;;;;;;;;5055027;28;20184;-76
2022/08/27 12:38:46;;;;;;;7.40;6.50;;;;;;;;;;5062472;28;20235;-79
2022/08/27 12:41:24;;;;;;;7.47;5.93;;;;;;;;;;5059815;28;20202;-75
2022/08/27 12:44:00;;;;;;;7.80;6.00;;;;;;;;;;5058069;28;21017;-79
2022/08/27 12:46:27;;;;;;;6.57;5.93;;;;;;;;;;5054796;28;20173;-76
2022/08/27 12:49:03;;;;;;;6.90;6.20;;;;;;;;;;5064144;28;20262;-76
2022/08/27 12:51:35;;;;;;;6.60;6.00;;;;;;;;;;5051476;28;20193;-75
2022/08/27 12:54:01;;;;;;;6.37;5.67;;;;;;;;;;5054663;28;20204;-76
2022/08/27 12:56:36;;;;;;;7.73;6.27;;;;;;;;;;5060988;28;20213;-74
2022/08/27 12:59:06;;;;;;;7.23;5.63;;;;;;;;;;5059618;28;20288;-75
2022/08/27 13:01:51;;;;;;;7.07;6.47;;;;;;;;;;5053883;28;20561;-74
2022/08/27 13:04:20;;;;;;;7.07;6.30;;;;;;;;;;5057563;28;20203;-74
2022/08/27 13:06:46;;;;;;;6.80;6.10;;;;;;;;;;5064719;28;20181;-75
2022/08/27 13:09:12;;;;;;;7.30;6.60;;;;;;;;;;5066924;28;20179;-75
2022/08/27 13:11:54;;;;;;;7.07;6.40;;;;;;;;;;5058608;28;20184;-75
2022/08/27 13:14:21;;;;;;;7.37;6.60;;;;;;;;;;5061481;28;20680;-75
2022/08/27 13:16:54;;;;;;;6.90;6.30;;;;;;;;;;5062439;28;20177;-75
2022/08/27 13:19:27;;;;;;;7.43;6.17;;;;;;;;;;5059823;28;20242;-76
2022/08/27 13:21:54;;;;;;;9.43;6.40;;;;;;;;;;5054547;28;20189;-76
2022/08/27 13:24:26;;;;;;;8.40;6.27;;;;;;;;;;5058400;28;20290;-73
2022/08/27 13:26:53;;;;;;;7.73;6.30;;;;;;;;;;5060506;28;20570;-75
2022/08/27 13:29:20;;;;;;;6.87;6.10;;;;;;;;;;5080956;28;20185;-77
2022/08/27 13:31:48;;;;;;;7.53;6.17;;;;;;;;;;5061692;28;20186;-73
2022/08/27 13:34:18;;;;;;;6.57;5.97;;;;;;;;;;5066251;28;20296;-78
2022/08/27 13:36:58;;;;;;;8.77;6.33;;;;;;;;;;5061753;28;20259;-75
2022/08/27 13:39:26;;;;;;;6.47;5.83;;;;;;;;;;5062802;28;20245;-75
2022/08/27 13:41:52;;;;;;;8.80;6.13;;;;;;;;;;5060033;28;20198;-74
2022/08/27 13:44:20;;;;;;;7.80;5.87;;;;;;;;;;5053679;28;20192;-75
2022/08/27 13:46:52;;;;;;;6.53;5.83;;;;;;;;;;5063014;28;20723;-75
2022/08/27 13:49:21;;;;;;;6.13;5.53;;;;;;;;;;5061617;28;20181;-75
2022/08/27 13:51:48;;;;;;;5.77;5.27;;;;;;;;;;5060988;28;20193;-75
2022/08/27 13:54:14;;;;;;;8.63;5.57;;;;;;;;;;5060775;28;20212;-74
2022/08/27 13:56:54;;;;;;;8.90;5.40;;;;;;;;;;5067313;28;20180;-75
2022/08/27 13:59:21;;;;;;;6.20;5.60;;;;;;;;;;5059080;28;20243;-75
2022/08/27 14:02:05;;;;;;;6.33;5.80;;;;;;;;;;5060818;28;20594;-74
2022/08/27 14:04:45;;;;;;;6.37;5.73;;;;;;;;;;5058616;28;20296;-74
2022/08/27 14:07:16;;;;;;;6.40;5.80;;;;;;;;;;5065841;28;20252;-75
2022/08/27 14:10:01;;;;;;;9.13;5.40;;;;;;;;;;5060393;28;20249;-74
2022/08/27 14:12:27;;;;;;;7.07;5.67;;;;;;;;;;5061520;28;20274;-74
2022/08/27 14:14:54;;;;;;;7.57;5.60;;;;;;;;;;5067793;28;20228;-74
2022/08/27 14:17:22;;;;;;;6.20;5.60;;;;;;;;;;5063432;28;20185;-74
2022/08/27 14:19:48;;;;;;;6.33;5.77;;;;;;;;;;5064284;28;20181;-74
2022/08/27 14:22:15;;;;;;;7.07;5.80;;;;;;;;;;5061560;28;20227;-74
2022/08/27 14:24:41;;;;;;;6.07;5.47;;;;;;;;;;5062495;28;20292;-74
2022/08/27 14:27:13;;;;;;;7.03;5.17;;;;;;;;;;5064310;28;20688;-74
2022/08/27 14:29:39;;;;;;;8.13;5.97;;;;;;;;;;5061260;28;20197;-74
2022/08/27 14:32:06;;;;;;;6.57;5.87;;;;;;;;;;5063083;28;20303;-74
2022/08/27 14:34:33;;;;;;;9.77;5.90;;;;;;;;;;5044538;28;20225;-74
2022/08/27 14:36:59;;;;;;;7.03;6.00;;;;;;;;;;5063272;28;20195;-74
2022/08/27 14:39:25;;;;;;;6.50;5.30;;;;;;;;;;5062456;28;20193;-74
2022/08/27 14:41:52;;;;;;;5.90;5.40;;;;;;;;;;5063617;28;20291;-74
2022/08/27 14:44:18;;;;;;;6.57;5.60;;;;;;;;;;5063693;28;20221;-74
2022/08/27 14:46:44;;;;;;;7.57;5.40;;;;;;;;;;5064088;28;20180;-74
2022/08/27 14:49:15;;;;;;;8.47;5.53;;;;;;;;;;5067918;28;20926;-75